Latest Weather Observations for Frankston

IDV60901

Issued at 9:41 pm EST Friday 30 September 2016 (issued every 10 minutes, with the page automatically refreshed every 10 minutes)

About weather observations | Map of Melbourne area stations | Latest observations for Melbourne area | Other Formats
Station Details ID: 086371 Name: FRANKSTON AWS Lat: -38.15 Lon: 145.12 Height: 6.0 m
Data from the previous 72 hours. | See also: Recent months at Frankston
Date/Time
EST
Temp
°C
App
Temp
°C
Dew
Point
°C
Rel
Hum
%
Delta-T
°C
Wind Press
QNH
hPa
Press
MSL
hPa
Rain since
9am
mm
Dir  Spd
km/h
Gust
km/h
Spd
kts
Gust
kts
30/09:30pm 13.0 10.7 9.1 77 2.0 NNW 11 13 6 7 - - -
30/09:00pm 13.0 10.7 8.9 76 2.1 NW 11 13 6 7 - - -
30/08:30pm 13.1 10.8 9.0 76 2.1 WNW 11 15 6 8 - - -
30/08:00pm 13.2 10.4 8.7 74 2.3 W 13 15 7 8 - - -
30/07:30pm 13.1 11.5 8.8 75 2.2 W 7 7 4 4 - - -
30/07:00pm 13.3 10.2 9.0 75 2.2 WSW 15 17 8 9 - - -
30/06:30pm 13.2 10.8 8.5 73 2.3 WSW 11 15 6 8 - - -
30/06:00pm 13.4 9.9 8.7 73 2.4 WSW 17 19 9 10 - - -
30/05:30pm 13.5 10.3 8.6 72 2.5 WSW 15 19 8 10 - - -
30/05:00pm 13.6 10.7 8.0 69 2.8 WSW 13 17 7 9 - - -
30/04:30pm 13.4 10.4 9.1 75 2.2 W 15 17 8 9 - - -
30/04:00pm 12.9 9.7 8.4 74 2.2 W 15 19 8 10 - - -
30/03:30pm 12.5 9.5 7.8 73 2.3 W 13 15 7 8 - - -
30/03:00pm 12.6 10.4 7.9 73 2.3 WNW 9 13 5 7 - - -
30/02:30pm 12.3 9.9 6.8 69 2.6 WNW 9 13 5 7 - - -
30/02:00pm 12.4 9.9 6.5 67 2.8 W 9 11 5 6 - - -
30/01:30pm 12.1 9.6 6.6 69 2.6 W 9 11 5 6 - - -
30/01:00pm 12.0 10.5 6.7 70 2.5 W 4 7 2 4 - - -
30/12:30pm 11.4 9.0 7.1 75 2.1 WSW 9 11 5 6 - - -
30/12:00pm 11.1 8.3 7.0 76 2.0 W 11 13 6 7 - - -
30/11:30am 11.0 7.9 7.1 77 1.9 WNW 13 17 7 9 - - -
30/11:00am 11.2 8.9 7.5 78 1.8 NW 9 13 5 7 - - -
30/10:30am 11.0 7.8 6.9 76 1.9 NW 13 17 7 9 - - -
30/10:00am 10.8 6.9 6.9 77 1.8 NW 17 19 9 10 - - -
30/09:30am 10.8 8.0 6.9 77 1.8 NW 11 15 6 8 - - -
30/09:00am 10.9 8.5 6.8 76 1.9 NW 9 13 5 7 - - -
30/08:30am 10.9 9.1 7.2 78 1.8 N 6 9 3 5 - - -
30/08:00am 10.7 8.4 7.6 81 1.5 NNE 9 13 5 7 - - -
30/07:30am 10.6 8.7 7.5 81 1.5 NE 7 11 4 6 - - -
30/07:00am 9.3 7.6 6.0 80 1.5 E 4 7 2 4 - - -
30/06:30am 9.4 7.1 5.9 79 1.6 E 7 11 4 6 - - -
30/06:00am 9.3 7.0 5.7 78 1.6 ESE 7 11 4 6 - - -
30/05:30am 9.2 6.9 5.9 80 1.5 E 7 11 4 6 - - -
30/05:00am 9.3 7.1 6.0 80 1.5 E 7 11 4 6 - - -
30/04:30am 9.1 6.1 6.0 81 1.4 E 11 17 6 9 - - -
30/04:00am 8.9 5.9 6.0 82 1.3 ESE 11 20 6 11 - - -
30/03:30am 9.1 6.1 6.2 82 1.3 ESE 11 19 6 10 - - -
30/03:00am 9.4 6.5 6.7 83 1.3 ESE 11 15 6 8 - - -
30/02:30am 9.2 6.8 6.8 85 1.1 ESE 9 17 5 9 - - -
30/02:00am 9.1 6.2 6.7 85 1.1 ESE 11 19 6 10 - - -
30/01:30am 8.9 6.0 6.7 86 1.0 ESE 11 20 6 11 - - -
30/01:00am 8.5 5.6 6.5 87 0.9 SE 11 17 6 9 - - -
30/12:30am 8.9 6.3 6.3 84 1.2 SE 9 17 5 9 - - -
30/12:00am 9.8 7.2 6.0 77 1.7 E 9 15 5 8 - - -
 
Date/Time
EST
Temp
°C
App
Temp
°C
Dew
Point
°C
Rel
Hum
%
Delta-T
°C
Wind Press
QNH
hPa
Press
MSL
hPa
Rain since
9am
mm
Dir  Spd
km/h
Gust
km/h
Spd
kts
Gust
kts
29/11:30pm 10.2 7.7 5.0 70 2.3 ENE 7 13 4 7 - - -
29/11:00pm 10.3 7.8 4.9 69 2.4 E 7 15 4 8 - - -
29/10:30pm 10.3 7.1 5.1 70 2.4 E 11 19 6 10 - - -
29/10:00pm 10.2 7.4 5.0 70 2.3 E 9 15 5 8 - - -
29/09:30pm 10.5 7.6 4.6 67 2.6 E 9 19 5 10 - - -
29/09:00pm 11.0 7.7 4.7 65 2.8 NE 11 24 6 13 - - -
29/08:30pm 11.0 7.0 4.9 66 2.8 NE 15 24 8 13 - - -
29/08:00pm 11.0 7.1 5.3 68 2.6 NE 15 24 8 13 - - -
29/07:30pm 11.3 9.1 6.0 70 2.5 ENE 7 11 4 6 - - -
29/07:00pm 11.3 8.3 5.8 69 2.6 NE 11 17 6 9 - - -
29/06:30pm 12.0 7.1 5.0 62 3.2 NNE 20 32 11 17 - - -
29/06:00pm 12.3 8.7 5.0 61 3.4 NE 13 22 7 12 - - -
29/05:30pm 12.0 8.4 5.0 62 3.2 NE 13 22 7 12 - - -
29/05:00pm 13.0 7.2 6.4 64 3.1 NNW 26 33 14 18 - - -
29/04:30pm 15.3 9.6 3.1 44 5.5 NNE 22 35 12 19 - - -
29/04:00pm 14.8 9.0 4.5 50 4.8 N 24 32 13 17 - - -
29/03:30pm 14.7 8.1 4.4 50 4.8 N 28 35 15 19 - - -
29/03:00pm 14.7 8.8 4.1 49 4.9 N 24 32 13 17 - - -
29/02:30pm 14.5 9.8 5.0 53 4.4 NNW 19 26 10 14 - - -
29/02:00pm 14.4 9.5 5.2 54 4.3 N 20 26 11 14 - - -
29/01:30pm 14.1 8.7 6.5 60 3.7 NNW 24 30 13 16 - - -
29/01:00pm 13.9 7.4 4.5 53 4.3 NNW 28 32 15 17 - - -
29/12:30pm 14.0 8.2 4.6 53 4.3 NNW 24 32 13 17 - - -
29/12:00pm 13.5 9.4 6.1 61 3.5 NW 17 20 9 11 - - -
29/11:30am 13.2 7.4 6.3 63 3.3 NNW 26 32 14 17 - - -
29/11:00am 13.1 7.4 6.7 65 3.1 NNW 26 33 14 18 - - -
29/10:30am 13.3 8.9 7.3 67 2.9 N 20 26 11 14 - - -
29/10:00am 12.8 7.3 7.7 71 2.5 N 26 33 14 18 - - -
29/09:30am 12.7 6.8 7.6 71 2.5 NNW 28 35 15 19 - - -
29/09:00am 13.3 6.7 7.7 69 2.7 NW 32 37 17 20 - - -
29/08:43am 13.4 7.6 8.0 70 2.7 NW 28 39 15 21 - - -
29/08:30am 14.0 11.4 9.4 74 2.4 N 13 19 7 10 - - -
29/08:00am 14.0 10.1 9.6 75 2.3 N 20 24 11 13 - - -
29/07:30am 14.0 10.3 9.6 75 2.3 NNE 19 26 10 14 - - -
29/07:00am 13.9 10.9 10.5 80 1.8 NE 17 26 9 14 - - -
29/06:30am 13.9 11.2 10.5 80 1.8 NE 15 28 8 15 - - -
29/06:00am 14.0 11.3 10.4 79 1.9 NE 15 26 8 14 - - -
29/05:30am 13.8 11.9 10.4 80 1.8 NE 11 20 6 11 - - -
29/05:00am 13.6 11.3 10.4 81 1.7 ENE 13 22 7 12 - - -
29/04:30am 13.9 11.5 10.1 78 2.0 NE 13 24 7 13 - - -
29/04:00am 14.2 10.5 10.2 77 2.1 NE 20 33 11 18 - - -
29/03:30am 14.1 10.6 10.1 77 2.1 NE 19 33 10 18 - - -
29/03:02am 14.4 9.1 9.8 74 2.4 NE 28 46 15 25 - - -
29/03:00am 14.4 9.5 9.8 74 2.4 NE 26 43 14 23 - - -
29/02:30am 15.7 10.8 8.4 62 3.7 NE 24 39 13 21 - - -
29/02:00am 16.3 12.8 7.3 55 4.5 NE 15 24 8 13 - - -
29/01:30am 14.7 13.0 7.5 62 3.6 ENE 6 9 3 5 - - -
29/01:00am 14.1 11.5 7.9 66 3.1 ESE 11 22 6 12 - - -
29/12:30am 13.1 10.9 7.8 70 2.6 ESE 9 15 5 8 - - -
29/12:00am 12.9 10.7 7.8 71 2.5 ESE 9 17 5 9 - - -
 
Date/Time
EST
Temp
°C
App
Temp
°C
Dew
Point
°C
Rel
Hum
%
Delta-T
°C
Wind Press
QNH
hPa
Press
MSL
hPa
Rain since
9am
mm
Dir  Spd
km/h
Gust
km/h
Spd
kts
Gust
kts
28/11:30pm 13.2 10.6 7.6 69 2.7 ESE 11 19 6 10 - - -
28/11:00pm 13.6 11.0 7.6 67 2.9 ESE 11 19 6 10 - - -
28/10:30pm 13.6 11.7 7.6 67 2.9 E 7 13 4 7 - - -
28/10:00pm 13.6 11.0 7.8 68 2.9 ESE 11 19 6 10 - - -
28/09:30pm 14.0 11.5 8.2 68 2.9 E 11 19 6 10 - - -
28/09:00pm 14.9 12.3 7.7 62 3.6 E 11 22 6 12 - - -
28/08:30pm 15.9 13.5 6.9 55 4.4 ENE 9 17 5 9 - - -
28/08:00pm 15.9 13.9 6.9 55 4.4 ENE 7 15 4 8 - - -
28/07:30pm 16.2 13.0 6.9 54 4.6 NE 13 24 7 13 - - -
28/07:00pm 16.4 13.2 6.8 53 4.7 NE 13 24 7 13 - - -
28/06:30pm 16.3 12.8 7.3 55 4.5 NNE 15 22 8 12 - - -
28/06:00pm 16.9 13.1 7.5 54 4.7 NNE 17 26 9 14 - - -
28/05:30pm 17.1 13.7 7.5 53 4.8 NNE 15 22 8 12 - - -
28/05:00pm 17.0 13.0 8.4 57 4.4 NNE 19 28 10 15 - - -
28/04:30pm 17.2 12.6 8.1 55 4.6 NNE 22 28 12 15 - - -
28/04:00pm 17.3 13.1 8.4 56 4.6 NNE 20 28 11 15 - - -
28/03:30pm 17.0 12.6 7.6 54 4.7 NNE 20 30 11 16 - - -
28/03:00pm 17.2 12.0 7.3 52 5.0 NNE 24 33 13 18 - - -
28/02:30pm 17.9 13.5 7.3 50 5.3 NNE 20 30 11 16 - - -
28/02:00pm 17.0 12.5 7.1 52 4.9 NNE 20 30 11 16 - - -
28/01:30pm 16.6 12.0 6.7 52 4.9 NNE 20 30 11 16 - - -
28/01:00pm 16.1 11.7 6.5 53 4.7 N 19 24 10 13 - - -
28/12:30pm 15.0 11.4 8.5 65 3.3 N 17 20 9 11 - - -
28/12:00pm 14.9 11.1 7.5 61 3.7 N 17 22 9 12 - - -
28/11:30am 13.9 12.1 8.1 68 2.9 NW 7 9 4 5 - - -
28/11:00am 13.9 12.0 7.7 66 3.1 NNW 7 7 4 4 - - -
28/10:30am 13.7 10.6 7.2 65 3.2 N 13 17 7 9 - - -
28/10:00am 13.3 9.9 7.7 69 2.7 N 15 17 8 9 - - -
28/09:30am 12.9 9.1 7.6 70 2.6 N 17 20 9 11 - - -
28/09:00am 12.7 9.2 7.4 70 2.6 N 15 20 8 11 - - -
28/08:30am 12.2 10.3 7.7 74 2.2 NNE 7 11 4 6 - - -
28/08:00am 11.7 10.0 7.6 76 2.0 ENE 6 9 3 5 - - -
28/07:30am 10.6 8.9 7.7 82 1.4 ENE 6 7 3 4 - - -
28/07:00am 9.5 7.6 7.4 87 1.0 ESE 7 9 4 5 - - -
28/06:30am 8.3 7.2 6.8 90 0.7 ESE 2 6 1 3 - - -
28/06:00am 7.9 6.7 6.4 90 0.7 ESE 2 6 1 3 - - -
28/05:30am 7.8 6.1 6.1 89 0.8 ESE 4 6 2 3 - - -
28/05:00am 8.5 6.6 6.5 87 0.9 E 6 7 3 4 - - -
28/04:30am 8.8 6.7 6.6 86 1.0 E 7 9 4 5 - - -
28/04:00am 9.7 7.4 7.3 85 1.1 NNE 9 13 5 7 - - -
28/03:30am 10.9 6.9 8.1 83 1.4 N 19 24 10 13 - - -
28/03:00am 10.9 7.2 8.0 82 1.4 N 17 20 9 11 - - -
28/02:30am 11.1 7.8 8.1 82 1.5 N 15 19 8 10 - - -
28/02:00am 11.1 7.5 8.3 83 1.4 N 17 20 9 11 - - -
28/01:30am 11.2 8.1 8.8 85 1.2 N 15 17 8 9 - - -
28/01:00am 9.6 8.4 8.0 90 0.8 ENE 4 9 2 5 - - -
28/12:30am 9.4 8.2 8.0 91 0.7 E 4 6 2 3 - - -
28/12:00am 9.2 8.4 8.0 92 0.6 SE 2 4 1 2 - - -
 
Date/Time
EST
Temp
°C
App
Temp
°C
Dew
Point
°C
Rel
Hum
%
Delta-T
°C
Wind Press
QNH
hPa
Press
MSL
hPa
Rain since
9am
mm
Dir  Spd
km/h
Gust
km/h
Spd
kts
Gust
kts
27/11:30pm 9.2 7.6 7.8 91 0.7 ESE 6 7 3 4 - - -
27/11:00pm 9.6 8.4 8.0 90 0.8 ESE 4 6 2 3 - - -
27/10:30pm 9.9 8.7 8.2 89 0.8 E 4 6 2 3 - - -
27/10:00pm 10.1 8.5 8.2 88 0.9 E 6 9 3 5 - - -

Latest Capital City Observations: Canberra | Sydney | Melbourne | Brisbane | Adelaide | Perth | Hobart | Darwin

Other Formats:

Comma delimited format used in spreadsheet applications
http://www.bom.gov.au/fwo/IDV60901/IDV60901.94871.axf

JavaScript Object Notation format (JSON) in row-major order
http://www.bom.gov.au/fwo/IDV60901/IDV60901.94871.json